Terminal Aerodrome Forecast
Issued by NWS

Current Version | Previous Version | Text Only | Print | Product List | Glossary On
Versions: 1 2 3 4 5 6 7 8 9 10 11 12 13 14 15 16 17 18
000
FTPA31 PHFO 241700
TAFITO
TAF
PHTO 241735Z 2418/2518 23004KT P6SM SCT025 BKN045
     FM242000 06008KT P6SM VCSH SCT025 BKN050
     FM250500 23004KT P6SM VCSH SCT025 BKN045=

USA.gov is the U.S. government's official web portal to all federal, state and local government web resources and services.